Latest Coastal Weather Observations for Cape Jaffa

IDS60701

Issued at 4:55 am CDT Saturday 29 November 2014 (issued every 10 minutes, with the page automatically refreshed every 10 minutes)

About coastal observations | Map of coastal stations | Coastal observations for SA | Marine services | Other Formats
Station Details ID: 026095 Name: THE LIMESTONE Lat: -36.97 Lon: 139.72 Height: 17.0 m
Data from the previous 72 hours. | See also: Recent months at Cape Jaffa
Date/Time
CDT
Temp

°C
Wind Pressure Rain
since 9am
mm
Weather Cloud Vis
km
Sea
Height
m
Swell
Dir
 
Speed
knots
Gust
knots
hPa Trend Height
m
Period
s
Dir
29/04:30am 9.4 SE 4 6 1013.8 - 0.0 - - - - - - -
29/04:00am 9.7 SSE 5 7 1013.8 - 0.0 - - - - - - -
29/03:30am 10.3 SE 5 8 1014.0 - 0.0 - - - - - - -
29/03:00am 10.8 SE 6 9 1014.1 - 0.0 - - - - - - -
29/02:30am 11.0 SE 7 10 1014.4 - 0.0 - - - - - - -
29/02:00am 11.5 SE 8 10 1014.8 - 0.0 - - - - - - -
29/01:30am 11.9 SE 8 11 1015.1 - 0.0 - - - - - - -
29/01:00am 12.3 SE 7 10 1015.7 - 0.0 - - - - - - -
29/12:30am 13.1 SE 8 11 1016.2 - 0.0 - - - - - - -
29/12:00am 13.5 ESE 8 11 1016.4 - 0.0 - - - - - - -
 
Date/Time
CDT
Temp

°C
Wind Pressure Rain
since 9am
mm
Weather Cloud Vis
km
Sea
Height
m
Swell
Dir
 
Speed
knots
Gust
knots
hPa Trend Height
m
Period
s
Dir
28/11:30pm 13.9 ESE 8 13 1016.6 - 0.0 - - - - - - -
28/11:00pm 14.4 SE 9 13 1016.6 - 0.0 - - - - - - -
28/10:30pm 15.0 SE 8 12 1016.7 - 0.0 - - - - - - -
28/10:00pm 15.5 SE 8 13 1016.9 - 0.0 - - - - - - -
28/09:30pm 15.8 SE 10 14 1016.8 - 0.0 - - - - - - -
28/09:00pm 16.9 SE 10 14 1016.6 - 0.0 - - - - - - -
28/08:30pm 16.6 SSE 6 10 1016.9 - 0.0 - - - - - - -
28/08:00pm 17.4 SSE 12 16 1016.8 - 0.0 - - - - - - -
28/07:30pm 18.6 SSE 12 16 1016.7 - 0.0 - - - - - - -
28/07:00pm 19.1 SSE 12 17 1016.7 - 0.0 - - - - - - -
28/06:30pm 20.3 S 18 21 1016.6 - 0.0 - - - - - - -
28/06:00pm 21.0 S 17 20 1016.5 - 0.0 - - - - - - -
28/05:30pm 19.3 S 18 21 1016.6 - 0.0 - - - - - - -
28/05:00pm 19.6 S 21 25 1016.8 - 0.0 - - - - - - -
28/04:30pm 20.3 S 21 25 1017.1 - 0.0 - - - - - - -
28/04:00pm 19.9 SSW 21 24 1017.3 - 0.0 - - - - - - -
28/03:30pm 19.8 SSW 21 25 1017.5 - 0.0 - - - - - - -
28/03:00pm 19.9 SSW 20 25 1017.8 - 0.0 - - - - - - -
28/02:30pm 19.5 SSW 21 25 1018.2 - 0.0 - - - - - - -
28/02:00pm 20.2 SSW 20 24 1018.4 - 0.0 - - - - - - -
28/01:30pm 20.9 SSW 17 20 1018.8 - 0.0 - - - - - - -
28/01:00pm 20.8 SSW 16 20 1019.2 - 0.0 - - - - - - -
28/12:30pm 21.6 SSW 14 16 1019.7 - 0.0 - - - - - - -
28/12:00pm 21.8 SSW 13 16 1020.2 - 0.0 - - - - - - -
28/11:30am 22.3 SSW 13 16 1020.6 - 0.0 - - - - - - -
28/11:00am 23.2 E 4 8 1020.8 - 0.0 - - - - - - -
28/10:30am 21.3 ESE 5 8 1021.0 - 0.0 - - - - - - -
28/10:00am 19.4 ESE 8 10 1021.4 - 0.0 - - - - - - -
28/09:30am 18.1 ESE 8 11 1021.6 - 0.0 - - - - - - -
28/09:00am 16.6 ESE 7 11 1021.9 - 0.0 - - - - - - -
28/08:30am 14.6 SE 10 14 1022.1 - 0.0 - - - - - - -
28/08:00am 13.4 ESE 9 14 1022.1 - 0.0 - - - - - - -
28/07:30am 12.0 ESE 11 19 1022.3 - 0.0 - - - - - - -
28/07:00am 11.2 SE 9 13 1022.3 - 0.0 - - - - - - -
28/06:30am 10.1 SE 10 14 1022.0 - 0.0 - - - - - - -
28/06:00am 9.0 SSE 9 13 1022.0 - 0.0 - - - - - - -
28/05:30am 9.1 SSE 9 12 1022.0 - 0.0 - - - - - - -
28/05:00am 9.6 SE 10 14 1021.6 - 0.0 - - - - - - -
28/04:30am 9.7 SE 9 14 1021.5 - 0.0 - - - - - - -
28/04:00am 9.5 SE 9 14 1021.3 - 0.0 - - - - - - -
28/03:30am 9.3 SSE 10 14 1021.3 - 0.0 - - - - - - -
28/03:00am 9.2 SSE 8 12 1021.4 - 0.0 - - - - - - -
28/02:30am 9.6 SSE 9 12 1021.6 - 0.0 - - - - - - -
28/02:00am 10.1 SSE 10 14 1021.7 - 0.0 - - - - - - -
28/01:30am 10.4 SE 10 14 1021.3 - 0.0 - - - - - - -
28/01:00am 10.6 SSE 9 14 1021.4 - 0.0 - - - - - - -
28/12:30am 10.9 SSE 10 14 1021.5 - 0.0 - - - - - - -
28/12:00am 11.7 SSE 9 14 1021.4 - 0.0 - - - - - - -
 
Date/Time
CDT
Temp

°C
Wind Pressure Rain
since 9am
mm
Weather Cloud Vis
km
Sea
Height
m
Swell
Dir
 
Speed
knots
Gust
knots
hPa Trend Height
m
Period
s
Dir
27/11:30pm 11.9 SSE 9 12 1021.6 - 0.0 - - - - - - -
27/11:00pm 12.1 SSE 9 13 1021.9 - 0.0 - - - - - - -
27/10:30pm 12.7 SSE 10 14 1022.0 - 0.0 - - - - - - -
27/10:00pm 13.0 SSE 10 14 1022.2 - 0.0 - - - - - - -
27/09:30pm 13.8 S 12 16 1022.3 - 0.0 - - - - - - -
27/09:00pm 14.4 S 13 16 1022.1 - 0.0 - - - - - - -
27/08:30pm 14.9 S 15 20 1022.2 - 0.0 - - - - - - -
27/08:00pm 15.3 S 16 21 1022.0 - 0.0 - - - - - - -
27/07:30pm 15.9 S 16 21 1021.9 - 0.0 - - - - - - -
27/07:00pm 16.4 S 21 25 1021.8 - 0.0 - - - - - - -
27/06:30pm 17.0 S 21 26 1021.9 - 0.0 - - - - - - -
27/06:00pm 17.4 S 22 26 1021.7 - 0.0 - - - - - - -
27/05:30pm 17.6 S 23 27 1022.0 - 0.0 - - - - - - -
27/05:00pm 17.5 S 24 29 1022.2 - 0.0 - - - - - - -
27/04:30pm 18.0 S 24 29 1022.4 - 0.0 - - - - - - -
27/04:00pm 18.1 S 24 28 1022.8 - 0.0 - - - - - - -
27/03:30pm 18.2 S 23 27 1023.0 - 0.0 - - - - - - -
27/03:00pm 19.1 SSW 23 28 1023.3 - 0.0 - - - - - - -
27/02:30pm 18.3 SSW 23 27 1023.3 - 0.0 - - - - - - -
27/02:00pm 17.8 SSW 23 26 1023.5 - 0.0 - - - - - - -
27/01:30pm 18.3 SSW 22 26 1023.7 - 0.0 - - - - - - -
27/01:00pm 18.3 SSW 21 25 1023.9 - 0.0 - - - - - - -
27/12:30pm 18.3 SSW 19 23 1024.1 - 0.0 - - - - - - -
27/12:00pm 18.5 SSW 17 21 1024.7 - 0.0 - - - - - - -
27/11:30am 18.3 SSW 15 19 1025.0 - 0.0 - - - - - - -
27/11:00am 18.1 SSE 9 14 1025.4 - 0.0 - - - - - - -
27/10:30am 16.8 SE 10 15 1025.8 - 0.0 - - - - - - -
27/10:00am 16.1 SE 10 14 1026.1 - 0.0 - - - - - - -
27/09:30am 15.3 SE 9 13 1026.5 - 0.0 - - - - - - -
27/09:00am 14.5 SE 8 13 1026.6 - - - - - - - - -
27/08:30am 14.1 SE 9 15 1026.6 - - - - - - - - -
27/08:00am 13.6 SE 7 12 1026.5 - - - - - - - - -
27/07:30am 11.9 SE 8 12 1026.2 - - - - - - - - -
27/07:00am 10.8 SE 7 11 1026.0 - - - - - - - - -
27/06:30am 9.0 SE 6 8 1025.9 - - - - - - - - -
27/06:00am 8.1 SE 7 9 1025.7 - - - - - - - - -
27/05:30am 7.3 SE 6 8 1025.3 - - - - - - - - -
27/05:00am 7.8 SE 6 8 1025.3 - - - - - - - - -
27/04:30am 7.8 SE 6 8 1025.1 - - - - - - - - -
27/04:00am 8.7 SE 7 9 1024.8 - - - - - - - - -
27/03:30am 8.4 SSE 5 7 1024.8 - - - - - - - - -
27/03:00am 9.3 SSE 6 9 1024.7 - 0.0 - - - - - - -
27/02:30am 9.3 SSE 7 9 1024.8 - - - - - - - - -
27/02:00am 9.5 SE 6 8 1024.9 - - - - - - - - -
27/01:30am 10.2 ESE 6 9 1025.0 - - - - - - - - -
27/01:00am 10.6 SE 7 10 1024.9 - - - - - - - - -
27/12:30am 11.2 SE 8 11 1025.1 - - - - - - - - -
27/12:00am 11.6 SE 8 12 1025.1 - - - - - - - - -
 
Date/Time
CDT
Temp

°C
Wind Pressure Rain
since 9am
mm
Weather Cloud Vis
km
Sea
Height
m
Swell
Dir
 
Speed
knots
Gust
knots
hPa Trend Height
m
Period
s
Dir
26/11:30pm 11.4 SSE 7 11 1025.2 - - - - - - - - -
26/11:00pm 12.0 SSE 7 11 1025.2 - - - - - - - - -
26/10:30pm 12.2 SSE 7 10 1025.1 - - - - - - - - -
26/10:00pm 12.5 SSE 7 10 1025.1 - - - - - - - - -
26/09:30pm 12.7 SSE 7 10 1024.7 - - - - - - - - -
26/09:00pm 13.4 SSE 10 14 1024.4 - 0.0 - - - - - - -
26/08:30pm 14.0 SSE 11 16 1024.0 - - - - - - - - -
26/08:00pm 14.7 SSE 13 18 1023.7 - - - - - - - - -
26/07:30pm 15.7 S 17 21 1023.5 - - - - - - - - -
26/07:00pm 16.3 S 18 23 1023.2 - - - - - - - - -
26/06:30pm 17.0 S 18 22 1023.1 - - - - - - - - -
26/06:00pm 17.6 SSW 16 20 1022.8 - - - - - - - - -
26/05:30pm 17.8 S 14 17 1022.9 - - - - - - - - -
26/05:00pm 17.5 SSW 14 18 1023.0 - - - - - - - - -
26/04:30pm 16.3 SSW 15 18 1023.3 - - - - - - - - -
26/04:00pm 18.0 SW 12 16 1023.5 - - - - - - - - -
26/03:30pm 18.6 SSW 15 18 1023.7 - - - - - - - - -
26/03:00pm 18.1 SW 13 18 1023.9 - - - - - - - - -
26/02:00pm 18.8 SW 13 17 1024.1 - - - - - - - - -
26/01:30pm 18.5 SW 11 15 1024.1 - - - - - - - - -
26/01:00pm 18.6 SW 12 17 1024.1 - - - - - - - - -
26/12:30pm 18.4 SW 11 15 1024.3 - - - - - - - - -
26/12:00pm 17.5 WSW 12 17 1024.4 - - - - - - - - -
26/09:30am 15.7 SW 9 11 1024.0 - 0.0 - - - - - - -
26/09:00am 16.1 SW 6 9 1023.9 - 0.0 - - - - - - -
26/08:30am 15.5 SW 9 12 1023.6 - 0.0 - - - - - - -
26/08:00am 14.6 SSW 11 14 1023.1 - 0.0 - - - - - - -
26/07:30am 14.9 SW 7 9 1022.7 - 0.0 - - - - - - -
26/07:00am 14.6 SW 6 10 1022.4 - 0.0 - - - - - - -
26/06:30am 14.3 SW 8 12 1022.3 - 0.0 - - - - - - -
26/06:00am 14.2 SW 9 11 1022.1 - 0.0 - - - - - - -
26/05:30am 14.3 WSW 8 10 1021.9 - 0.0 - - - - - - -
26/05:00am 14.3 SW 8 11 1021.6 - 0.0 - - - - - - -

Other Formats:

Comma delimited format used in spreadsheet applications
http://www.bom.gov.au/fwo/IDS60701/IDS60701.94813.axf

JavaScript Object Notation format (JSON) in row-major order
http://www.bom.gov.au/fwo/IDS60701/IDS60701.94813.json